Terminal Aerodrome Forecast
Issued by NWS

Current Version | Previous Version | Graphics & Text | Print | Product List | Glossary On
Versions: 1 2 3 4 5 6 7 8 9 10 11 12 13 14 15 16 17 18 19 20 21 22 23
000
FTUS41 KRLX 191700
TAFCKB
TAF
KCKB 191722Z 1918/2018 20011G18KT P6SM SCT100
     FM200500 23010G16KT P6SM OVC035
     FM200800 24009G15KT 6SM -SHSN OVC020
     FM201300 25009G14KT P6SM OVC020
     FM201700 25011G18KT P6SM BKN025=

USA.gov is the U.S. government's official web portal to all federal, state and local government web resources and services.